sensor_id;sensor_type;location;lat;lon;timestamp;P1;durP1;ratioP1;P2;durP2;ratioP2
13090;SDS011;6611;52.604;13.438;2023-07-29T00:03:26;6.07;;;5.23;;
13090;SDS011;6611;52.604;13.438;2023-07-29T00:08:31;5.57;;;5.03;;
13090;SDS011;6611;52.604;13.438;2023-07-29T00:13:33;8.17;;;5.87;;
13090;SDS011;6611;52.604;13.438;2023-07-29T00:18:34;5.63;;;5.13;;
13090;SDS011;6611;52.604;13.438;2023-07-29T00:23:37;5.50;;;5.00;;
13090;SDS011;6611;52.604;13.438;2023-07-29T00:28:39;7.00;;;5.10;;
13090;SDS011;6611;52.604;13.438;2023-07-29T00:33:40;5.63;;;5.03;;
13090;SDS011;6611;52.604;13.438;2023-07-29T00:38:43;6.73;;;5.40;;
13090;SDS011;6611;52.604;13.438;2023-07-29T00:43:45;6.60;;;5.83;;
13090;SDS011;6611;52.604;13.438;2023-07-29T00:48:47;7.33;;;6.20;;
13090;SDS011;6611;52.604;13.438;2023-07-29T00:53:50;6.00;;;5.40;;
13090;SDS011;6611;52.604;13.438;2023-07-29T00:58:52;6.50;;;5.80;;
13090;SDS011;6611;52.604;13.438;2023-07-29T01:03:58;7.07;;;5.67;;
13090;SDS011;6611;52.604;13.438;2023-07-29T01:09:02;6.67;;;5.60;;
13090;SDS011;6611;52.604;13.438;2023-07-29T01:14:10;5.37;;;4.83;;
13090;SDS011;6611;52.604;13.438;2023-07-29T01:19:25;6.27;;;5.33;;
13090;SDS011;6611;52.604;13.438;2023-07-29T01:24:40;5.13;;;4.63;;
13090;SDS011;6611;52.604;13.438;2023-07-29T01:29:41;6.10;;;4.93;;
13090;SDS011;6611;52.604;13.438;2023-07-29T01:34:44;6.20;;;5.60;;
13090;SDS011;6611;52.604;13.438;2023-07-29T01:39:51;6.03;;;5.40;;
13090;SDS011;6611;52.604;13.438;2023-07-29T01:44:57;6.83;;;6.13;;
13090;SDS011;6611;52.604;13.438;2023-07-29T01:49:59;9.20;;;5.73;;
13090;SDS011;6611;52.604;13.438;2023-07-29T01:55:02;6.83;;;5.53;;
13090;SDS011;6611;52.604;13.438;2023-07-29T02:00:05;6.27;;;5.17;;
13090;SDS011;6611;52.604;13.438;2023-07-29T02:05:08;5.70;;;5.20;;
13090;SDS011;6611;52.604;13.438;2023-07-29T02:10:11;5.67;;;5.13;;
13090;SDS011;6611;52.604;13.438;2023-07-29T02:15:12;5.87;;;5.27;;
13090;SDS011;6611;52.604;13.438;2023-07-29T02:20:14;6.60;;;4.87;;
13090;SDS011;6611;52.604;13.438;2023-07-29T02:25:17;9.60;;;5.43;;
13090;SDS011;6611;52.604;13.438;2023-07-29T02:30:20;6.23;;;5.63;;
13090;SDS011;6611;52.604;13.438;2023-07-29T02:35:21;8.07;;;6.37;;
13090;SDS011;6611;52.604;13.438;2023-07-29T02:40:24;7.83;;;5.90;;
13090;SDS011;6611;52.604;13.438;2023-07-29T02:45:26;6.40;;;5.40;;
13090;SDS011;6611;52.604;13.438;2023-07-29T02:50:28;6.70;;;5.37;;
13090;SDS011;6611;52.604;13.438;2023-07-29T02:55:32;10.50;;;6.10;;
13090;SDS011;6611;52.604;13.438;2023-07-29T03:00:33;6.73;;;5.70;;
13090;SDS011;6611;52.604;13.438;2023-07-29T03:05:35;6.57;;;5.67;;
13090;SDS011;6611;52.604;13.438;2023-07-29T03:10:39;6.30;;;5.47;;
13090;SDS011;6611;52.604;13.438;2023-07-29T03:15:42;6.03;;;5.43;;
13090;SDS011;6611;52.604;13.438;2023-07-29T03:20:43;7.07;;;5.83;;
13090;SDS011;6611;52.604;13.438;2023-07-29T03:25:49;7.33;;;6.07;;
13090;SDS011;6611;52.604;13.438;2023-07-29T03:30:51;7.60;;;6.00;;
13090;SDS011;6611;52.604;13.438;2023-07-29T03:35:54;5.97;;;5.23;;
13090;SDS011;6611;52.604;13.438;2023-07-29T03:40:57;5.97;;;5.00;;
13090;SDS011;6611;52.604;13.438;2023-07-29T03:45:59;8.47;;;6.07;;
13090;SDS011;6611;52.604;13.438;2023-07-29T03:51:01;7.43;;;5.47;;
13090;SDS011;6611;52.604;13.438;2023-07-29T03:56:04;7.20;;;6.43;;
13090;SDS011;6611;52.604;13.438;2023-07-29T04:01:06;7.53;;;6.37;;
13090;SDS011;6611;52.604;13.438;2023-07-29T04:06:07;8.03;;;6.87;;
13090;SDS011;6611;52.604;13.438;2023-07-29T04:11:10;7.10;;;6.40;;
13090;SDS011;6611;52.604;13.438;2023-07-29T04:16:12;8.83;;;7.50;;
13090;SDS011;6611;52.604;13.438;2023-07-29T04:21:14;8.53;;;7.37;;
13090;SDS011;6611;52.604;13.438;2023-07-29T04:26:17;8.20;;;7.30;;
13090;SDS011;6611;52.604;13.438;2023-07-29T04:31:18;8.63;;;7.73;;
13090;SDS011;6611;52.604;13.438;2023-07-29T04:36:20;8.73;;;7.83;;
13090;SDS011;6611;52.604;13.438;2023-07-29T04:41:23;8.60;;;7.70;;
13090;SDS011;6611;52.604;13.438;2023-07-29T04:46:24;7.93;;;6.60;;
13090;SDS011;6611;52.604;13.438;2023-07-29T04:51:26;9.60;;;8.20;;
13090;SDS011;6611;52.604;13.438;2023-07-29T04:56:29;7.63;;;6.77;;
13090;SDS011;6611;52.604;13.438;2023-07-29T05:01:31;8.00;;;6.97;;
13090;SDS011;6611;52.604;13.438;2023-07-29T05:06:32;8.33;;;7.30;;
13090;SDS011;6611;52.604;13.438;2023-07-29T05:11:36;6.80;;;6.10;;
13090;SDS011;6611;52.604;13.438;2023-07-29T05:16:37;7.90;;;7.10;;
13090;SDS011;6611;52.604;13.438;2023-07-29T05:21:39;7.67;;;6.53;;
13090;SDS011;6611;52.604;13.438;2023-07-29T05:26:42;7.70;;;7.00;;
13090;SDS011;6611;52.604;13.438;2023-07-29T05:31:44;8.10;;;7.30;;
13090;SDS011;6611;52.604;13.438;2023-07-29T05:36:45;6.90;;;6.20;;
13090;SDS011;6611;52.604;13.438;2023-07-29T05:41:48;7.90;;;7.10;;
13090;SDS011;6611;52.604;13.438;2023-07-29T05:46:50;7.77;;;7.07;;
13090;SDS011;6611;52.604;13.438;2023-07-29T05:51:51;7.87;;;7.07;;
13090;SDS011;6611;52.604;13.438;2023-07-29T05:56:54;6.97;;;6.20;;
13090;SDS011;6611;52.604;13.438;2023-07-29T06:01:56;7.10;;;6.43;;
13090;SDS011;6611;52.604;13.438;2023-07-29T06:06:58;7.17;;;6.47;;
13090;SDS011;6611;52.604;13.438;2023-07-29T06:12:01;7.10;;;6.40;;
13090;SDS011;6611;52.604;13.438;2023-07-29T06:17:03;6.57;;;5.97;;
13090;SDS011;6611;52.604;13.438;2023-07-29T06:22:07;6.07;;;5.47;;
13090;SDS011;6611;52.604;13.438;2023-07-29T06:27:10;6.20;;;5.60;;
13090;SDS011;6611;52.604;13.438;2023-07-29T06:32:11;6.40;;;5.80;;
13090;SDS011;6611;52.604;13.438;2023-07-29T06:37:13;5.37;;;4.70;;
13090;SDS011;6611;52.604;13.438;2023-07-29T06:42:16;5.43;;;4.93;;
13090;SDS011;6611;52.604;13.438;2023-07-29T06:47:17;6.27;;;5.67;;
13090;SDS011;6611;52.604;13.438;2023-07-29T06:52:19;5.67;;;5.17;;
13090;SDS011;6611;52.604;13.438;2023-07-29T06:57:22;5.33;;;4.57;;
13090;SDS011;6611;52.604;13.438;2023-07-29T07:02:24;4.70;;;4.20;;
13090;SDS011;6611;52.604;13.438;2023-07-29T07:07:26;5.20;;;4.27;;
13090;SDS011;6611;52.604;13.438;2023-07-29T07:12:29;5.63;;;5.13;;
13090;SDS011;6611;52.604;13.438;2023-07-29T07:17:30;4.60;;;4.20;;
13090;SDS011;6611;52.604;13.438;2023-07-29T07:22:32;5.23;;;4.77;;
13090;SDS011;6611;52.604;13.438;2023-07-29T07:27:35;7.47;;;5.70;;
13090;SDS011;6611;52.604;13.438;2023-07-29T07:32:37;5.43;;;4.73;;
13090;SDS011;6611;52.604;13.438;2023-07-29T07:37:39;6.17;;;5.57;;
13090;SDS011;6611;52.604;13.438;2023-07-29T07:42:42;7.10;;;6.43;;
13090;SDS011;6611;52.604;13.438;2023-07-29T07:47:43;6.30;;;5.70;;
13090;SDS011;6611;52.604;13.438;2023-07-29T07:52:45;6.37;;;5.77;;
13090;SDS011;6611;52.604;13.438;2023-07-29T07:57:48;7.37;;;6.77;;
13090;SDS011;6611;52.604;13.438;2023-07-29T08:02:50;6.30;;;5.80;;
13090;SDS011;6611;52.604;13.438;2023-07-29T08:07:51;5.83;;;5.33;;
13090;SDS011;6611;52.604;13.438;2023-07-29T08:12:54;7.40;;;6.70;;
13090;SDS011;6611;52.604;13.438;2023-07-29T08:17:56;6.45;;;5.57;;
13090;SDS011;6611;52.604;13.438;2023-07-29T08:22:58;5.72;;;5.07;;
13090;SDS011;6611;52.604;13.438;2023-07-29T08:28:01;5.22;;;4.75;;
13090;SDS011;6611;52.604;13.438;2023-07-29T08:33:02;4.90;;;4.40;;
13090;SDS011;6611;52.604;13.438;2023-07-29T08:38:04;5.95;;;4.82;;
13090;SDS011;6611;52.604;13.438;2023-07-29T08:43:07;5.85;;;5.35;;
13090;SDS011;6611;52.604;13.438;2023-07-29T08:48:10;5.10;;;4.63;;
13090;SDS011;6611;52.604;13.438;2023-07-29T08:53:13;5.33;;;4.83;;
13090;SDS011;6611;52.604;13.438;2023-07-29T08:58:16;4.40;;;4.00;;
13090;SDS011;6611;52.604;13.438;2023-07-29T09:03:19;3.90;;;3.60;;
13090;SDS011;6611;52.604;13.438;2023-07-29T09:08:20;3.60;;;3.30;;
13090;SDS011;6611;52.604;13.438;2023-07-29T09:13:24;4.18;;;3.78;;
13090;SDS011;6611;52.604;13.438;2023-07-29T09:18:27;3.80;;;3.50;;
13090;SDS011;6611;52.604;13.438;2023-07-29T09:23:32;4.27;;;3.57;;
13090;SDS011;6611;52.604;13.438;2023-07-29T09:28:41;3.85;;;3.55;;
13090;SDS011;6611;52.604;13.438;2023-07-29T09:33:43;3.25;;;2.97;;
13090;SDS011;6611;52.604;13.438;2023-07-29T09:38:45;3.30;;;3.00;;
13090;SDS011;6611;52.604;13.438;2023-07-29T09:43:48;3.20;;;2.90;;
13090;SDS011;6611;52.604;13.438;2023-07-29T09:48:56;3.22;;;2.92;;
13090;SDS011;6611;52.604;13.438;2023-07-29T09:53:58;3.47;;;3.00;;
13090;SDS011;6611;52.604;13.438;2023-07-29T09:59:05;5.80;;;2.83;;
13090;SDS011;6611;52.604;13.438;2023-07-29T10:04:07;2.88;;;2.67;;
13090;SDS011;6611;52.604;13.438;2023-07-29T10:09:10;2.88;;;2.40;;
13090;SDS011;6611;52.604;13.438;2023-07-29T10:14:14;2.50;;;2.30;;
13090;SDS011;6611;52.604;13.438;2023-07-29T10:19:16;2.50;;;2.30;;
13090;SDS011;6611;52.604;13.438;2023-07-29T10:24:19;2.78;;;2.58;;
13090;SDS011;6611;52.604;13.438;2023-07-29T10:29:30;2.80;;;2.50;;
13090;SDS011;6611;52.604;13.438;2023-07-29T10:34:33;2.78;;;2.50;;
13090;SDS011;6611;52.604;13.438;2023-07-29T10:39:38;2.97;;;2.38;;
13090;SDS011;6611;52.604;13.438;2023-07-29T10:44:49;2.85;;;2.22;;
13090;SDS011;6611;52.604;13.438;2023-07-29T10:49:53;2.33;;;2.13;;
13090;SDS011;6611;52.604;13.438;2023-07-29T10:54:55;2.40;;;2.20;;
13090;SDS011;6611;52.604;13.438;2023-07-29T11:00:00;2.50;;;2.30;;
13090;SDS011;6611;52.604;13.438;2023-07-29T11:05:04;2.63;;;2.00;;
13090;SDS011;6611;52.604;13.438;2023-07-29T11:10:07;4.13;;;2.10;;
13090;SDS011;6611;52.604;13.438;2023-07-29T11:15:17;2.20;;;2.00;;
13090;SDS011;6611;52.604;13.438;2023-07-29T11:20:21;1.60;;;1.50;;
13090;SDS011;6611;52.604;13.438;2023-07-29T11:25:27;1.80;;;1.20;;
13090;SDS011;6611;52.604;13.438;2023-07-29T11:30:32;3.07;;;1.63;;
13090;SDS011;6611;52.604;13.438;2023-07-29T11:35:34;3.23;;;1.80;;
13090;SDS011;6611;52.604;13.438;2023-07-29T11:40:35;1.63;;;1.23;;
13090;SDS011;6611;52.604;13.438;2023-07-29T11:45:40;1.73;;;1.40;;
13090;SDS011;6611;52.604;13.438;2023-07-29T11:50:41;1.77;;;1.13;;
13090;SDS011;6611;52.604;13.438;2023-07-29T11:55:44;2.23;;;1.30;;
13090;SDS011;6611;52.604;13.438;2023-07-29T12:00:47;1.83;;;1.40;;
13090;SDS011;6611;52.604;13.438;2023-07-29T12:05:50;1.80;;;1.20;;
13090;SDS011;6611;52.604;13.438;2023-07-29T12:10:51;1.73;;;1.33;;
13090;SDS011;6611;52.604;13.438;2023-07-29T12:16:01;1.40;;;1.20;;
13090;SDS011;6611;52.604;13.438;2023-07-29T12:21:03;1.20;;;1.10;;
13090;SDS011;6611;52.604;13.438;2023-07-29T12:26:05;2.20;;;1.40;;
13090;SDS011;6611;52.604;13.438;2023-07-29T12:31:08;2.13;;;1.30;;
13090;SDS011;6611;52.604;13.438;2023-07-29T12:36:09;1.27;;;1.17;;
13090;SDS011;6611;52.604;13.438;2023-07-29T12:41:11;1.30;;;1.20;;
13090;SDS011;6611;52.604;13.438;2023-07-29T12:46:14;2.80;;;1.50;;
13090;SDS011;6611;52.604;13.438;2023-07-29T12:51:16;1.73;;;1.17;;
13090;SDS011;6611;52.604;13.438;2023-07-29T12:56:17;2.03;;;1.40;;
13090;SDS011;6611;52.604;13.438;2023-07-29T13:01:20;2.13;;;1.60;;
13090;SDS011;6611;52.604;13.438;2023-07-29T13:06:22;2.00;;;1.70;;
13090;SDS011;6611;52.604;13.438;2023-07-29T13:11:24;3.40;;;1.97;;
13090;SDS011;6611;52.604;13.438;2023-07-29T13:16:27;3.30;;;2.50;;
13090;SDS011;6611;52.604;13.438;2023-07-29T13:21:29;2.60;;;2.00;;
13090;SDS011;6611;52.604;13.438;2023-07-29T13:26:31;2.63;;;2.43;;
13090;SDS011;6611;52.604;13.438;2023-07-29T13:31:34;3.70;;;2.50;;
13090;SDS011;6611;52.604;13.438;2023-07-29T13:36:36;3.80;;;2.70;;
13090;SDS011;6611;52.604;13.438;2023-07-29T13:41:38;2.73;;;2.30;;
13090;SDS011;6611;52.604;13.438;2023-07-29T13:46:41;2.20;;;2.00;;
13090;SDS011;6611;52.604;13.438;2023-07-29T13:51:42;2.07;;;1.87;;
13090;SDS011;6611;52.604;13.438;2023-07-29T13:56:44;2.43;;;1.67;;
13090;SDS011;6611;52.604;13.438;2023-07-29T14:01:47;1.47;;;1.37;;
13090;SDS011;6611;52.604;13.438;2023-07-29T14:06:48;1.33;;;1.10;;
13090;SDS011;6611;52.604;13.438;2023-07-29T14:11:50;1.40;;;1.30;;
13090;SDS011;6611;52.604;13.438;2023-07-29T14:16:53;1.20;;;1.13;;
13090;SDS011;6611;52.604;13.438;2023-07-29T14:21:55;1.20;;;1.10;;
13090;SDS011;6611;52.604;13.438;2023-07-29T14:26:56;1.80;;;1.07;;
13090;SDS011;6611;52.604;13.438;2023-07-29T14:31:59;1.20;;;1.10;;
13090;SDS011;6611;52.604;13.438;2023-07-29T14:37:01;2.00;;;1.10;;
13090;SDS011;6611;52.604;13.438;2023-07-29T14:42:03;1.30;;;1.13;;
13090;SDS011;6611;52.604;13.438;2023-07-29T14:47:07;1.10;;;1.00;;
13090;SDS011;6611;52.604;13.438;2023-07-29T14:52:08;2.47;;;1.20;;
13090;SDS011;6611;52.604;13.438;2023-07-29T14:57:10;1.50;;;1.10;;
13090;SDS011;6611;52.604;13.438;2023-07-29T15:02:13;1.30;;;1.20;;
13090;SDS011;6611;52.604;13.438;2023-07-29T15:07:15;1.30;;;1.20;;
13090;SDS011;6611;52.604;13.438;2023-07-29T15:12:16;1.50;;;1.40;;
13090;SDS011;6611;52.604;13.438;2023-07-29T15:17:19;1.47;;;1.37;;
13090;SDS011;6611;52.604;13.438;2023-07-29T15:22:21;1.30;;;1.20;;
13090;SDS011;6611;52.604;13.438;2023-07-29T15:27:23;4.57;;;1.53;;
13090;SDS011;6611;52.604;13.438;2023-07-29T15:32:26;2.70;;;1.20;;
13090;SDS011;6611;52.604;13.438;2023-07-29T15:37:28;1.40;;;1.30;;
13090;SDS011;6611;52.604;13.438;2023-07-29T15:42:30;1.93;;;1.50;;
13090;SDS011;6611;52.604;13.438;2023-07-29T15:47:33;1.63;;;1.53;;
13090;SDS011;6611;52.604;13.438;2023-07-29T15:52:35;1.77;;;1.67;;
13090;SDS011;6611;52.604;13.438;2023-07-29T15:57:36;1.97;;;1.63;;
13090;SDS011;6611;52.604;13.438;2023-07-29T16:02:39;3.33;;;1.93;;
13090;SDS011;6611;52.604;13.438;2023-07-29T16:07:41;1.90;;;1.53;;
13090;SDS011;6611;52.604;13.438;2023-07-29T16:12:43;2.57;;;1.90;;
13090;SDS011;6611;52.604;13.438;2023-07-29T16:17:46;2.20;;;1.50;;
13090;SDS011;6611;52.604;13.438;2023-07-29T16:22:49;1.97;;;1.77;;
13090;SDS011;6611;52.604;13.438;2023-07-29T16:27:52;1.77;;;1.50;;
13090;SDS011;6611;52.604;13.438;2023-07-29T16:32:55;1.63;;;1.30;;
13090;SDS011;6611;52.604;13.438;2023-07-29T16:37:56;1.73;;;1.50;;
13090;SDS011;6611;52.604;13.438;2023-07-29T16:42:59;2.33;;;2.00;;
13090;SDS011;6611;52.604;13.438;2023-07-29T16:48:03;2.50;;;1.70;;
13090;SDS011;6611;52.604;13.438;2023-07-29T16:53:05;1.83;;;1.60;;
13090;SDS011;6611;52.604;13.438;2023-07-29T16:58:06;2.17;;;1.93;;
13090;SDS011;6611;52.604;13.438;2023-07-29T17:03:09;1.97;;;1.63;;
13090;SDS011;6611;52.604;13.438;2023-07-29T17:08:11;3.10;;;1.90;;
13090;SDS011;6611;52.604;13.438;2023-07-29T17:13:13;2.30;;;2.10;;
13090;SDS011;6611;52.604;13.438;2023-07-29T17:18:16;2.53;;;2.00;;
13090;SDS011;6611;52.604;13.438;2023-07-29T17:23:17;3.50;;;2.03;;
13090;SDS011;6611;52.604;13.438;2023-07-29T17:28:19;2.37;;;1.90;;
13090;SDS011;6611;52.604;13.438;2023-07-29T17:33:22;2.17;;;1.90;;
13090;SDS011;6611;52.604;13.438;2023-07-29T17:38:24;3.57;;;2.57;;
13090;SDS011;6611;52.604;13.438;2023-07-29T17:43:26;4.47;;;2.83;;
13090;SDS011;6611;52.604;13.438;2023-07-29T17:48:29;3.03;;;2.60;;
13090;SDS011;6611;52.604;13.438;2023-07-29T17:53:31;3.60;;;2.90;;
13090;SDS011;6611;52.604;13.438;2023-07-29T17:58:33;3.37;;;2.70;;
13090;SDS011;6611;52.604;13.438;2023-07-29T18:03:36;3.30;;;2.50;;
13090;SDS011;6611;52.604;13.438;2023-07-29T18:08:37;3.20;;;2.90;;
13090;SDS011;6611;52.604;13.438;2023-07-29T18:13:39;3.20;;;2.90;;
13090;SDS011;6611;52.604;13.438;2023-07-29T18:18:42;3.47;;;2.87;;
13090;SDS011;6611;52.604;13.438;2023-07-29T18:23:44;3.27;;;2.97;;
13090;SDS011;6611;52.604;13.438;2023-07-29T18:28:45;3.47;;;2.90;;
13090;SDS011;6611;52.604;13.438;2023-07-29T18:33:48;4.07;;;3.63;;
13090;SDS011;6611;52.604;13.438;2023-07-29T18:38:50;5.10;;;3.83;;
13090;SDS011;6611;52.604;13.438;2023-07-29T18:43:52;3.63;;;3.23;;
13090;SDS011;6611;52.604;13.438;2023-07-29T18:48:59;4.17;;;3.77;;
13090;SDS011;6611;52.604;13.438;2023-07-29T18:54:00;4.80;;;3.63;;
13090;SDS011;6611;52.604;13.438;2023-07-29T18:59:02;4.50;;;3.73;;
13090;SDS011;6611;52.604;13.438;2023-07-29T19:04:05;9.80;;;7.33;;
13090;SDS011;6611;52.604;13.438;2023-07-29T19:09:08;4.40;;;4.00;;
13090;SDS011;6611;52.604;13.438;2023-07-29T19:14:09;4.97;;;4.07;;
13090;SDS011;6611;52.604;13.438;2023-07-29T19:19:13;5.67;;;3.80;;
13090;SDS011;6611;52.604;13.438;2023-07-29T19:24:14;6.97;;;4.83;;
13090;SDS011;6611;52.604;13.438;2023-07-29T19:29:16;4.57;;;3.60;;
13090;SDS011;6611;52.604;13.438;2023-07-29T19:34:19;5.23;;;4.67;;
13090;SDS011;6611;52.604;13.438;2023-07-29T19:39:21;3.87;;;3.47;;
13090;SDS011;6611;52.604;13.438;2023-07-29T19:44:22;4.20;;;3.80;;
13090;SDS011;6611;52.604;13.438;2023-07-29T19:49:25;4.80;;;4.40;;
13090;SDS011;6611;52.604;13.438;2023-07-29T19:54:27;5.43;;;4.60;;
13090;SDS011;6611;52.604;13.438;2023-07-29T19:59:29;5.67;;;5.00;;
13090;SDS011;6611;52.604;13.438;2023-07-29T20:04:32;4.80;;;4.30;;
13090;SDS011;6611;52.604;13.438;2023-07-29T20:09:34;4.20;;;3.80;;
13090;SDS011;6611;52.604;13.438;2023-07-29T20:14:35;5.80;;;4.50;;
13090;SDS011;6611;52.604;13.438;2023-07-29T20:19:38;6.17;;;4.80;;
13090;SDS011;6611;52.604;13.438;2023-07-29T20:24:40;4.93;;;4.43;;
13090;SDS011;6611;52.604;13.438;2023-07-29T20:29:42;5.30;;;4.70;;
13090;SDS011;6611;52.604;13.438;2023-07-29T20:34:45;5.53;;;4.80;;
13090;SDS011;6611;52.604;13.438;2023-07-29T20:39:46;5.40;;;4.90;;
13090;SDS011;6611;52.604;13.438;2023-07-29T20:44:48;5.07;;;4.57;;
13090;SDS011;6611;52.604;13.438;2023-07-29T20:49:51;6.50;;;5.13;;
13090;SDS011;6611;52.604;13.438;2023-07-29T20:54:53;4.90;;;4.40;;
13090;SDS011;6611;52.604;13.438;2023-07-29T20:59:54;6.03;;;5.07;;
13090;SDS011;6611;52.604;13.438;2023-07-29T21:04:57;5.60;;;5.10;;
13090;SDS011;6611;52.604;13.438;2023-07-29T21:09:59;5.57;;;4.90;;
13090;SDS011;6611;52.604;13.438;2023-07-29T21:15:02;4.83;;;4.33;;
13090;SDS011;6611;52.604;13.438;2023-07-29T21:20:06;5.63;;;5.10;;
13090;SDS011;6611;52.604;13.438;2023-07-29T21:25:09;6.17;;;4.60;;
13090;SDS011;6611;52.604;13.438;2023-07-29T21:30:10;5.53;;;4.97;;
13090;SDS011;6611;52.604;13.438;2023-07-29T21:35:14;5.97;;;5.20;;
13090;SDS011;6611;52.604;13.438;2023-07-29T21:40:15;6.73;;;5.57;;
13090;SDS011;6611;52.604;13.438;2023-07-29T21:45:17;5.93;;;5.10;;
13090;SDS011;6611;52.604;13.438;2023-07-29T21:50:20;5.57;;;5.07;;
13090;SDS011;6611;52.604;13.438;2023-07-29T21:55:22;6.13;;;5.23;;
13090;SDS011;6611;52.604;13.438;2023-07-29T22:00:23;6.23;;;5.63;;
13090;SDS011;6611;52.604;13.438;2023-07-29T22:05:27;6.10;;;5.50;;
13090;SDS011;6611;52.604;13.438;2023-07-29T22:10:28;6.13;;;5.53;;
13090;SDS011;6611;52.604;13.438;2023-07-29T22:15:33;6.20;;;5.10;;
13090;SDS011;6611;52.604;13.438;2023-07-29T22:20:36;5.60;;;5.00;;
13090;SDS011;6611;52.604;13.438;2023-07-29T22:25:38;6.53;;;5.30;;
13090;SDS011;6611;52.604;13.438;2023-07-29T22:30:39;5.80;;;5.20;;
13090;SDS011;6611;52.604;13.438;2023-07-29T22:35:42;6.30;;;5.70;;
13090;SDS011;6611;52.604;13.438;2023-07-29T22:40:50;7.17;;;6.07;;
13090;SDS011;6611;52.604;13.438;2023-07-29T22:45:53;6.23;;;5.63;;
13090;SDS011;6611;52.604;13.438;2023-07-29T22:50:57;7.00;;;5.40;;
13090;SDS011;6611;52.604;13.438;2023-07-29T22:55:58;7.03;;;5.17;;
13090;SDS011;6611;52.604;13.438;2023-07-29T23:01:00;6.93;;;5.60;;
13090;SDS011;6611;52.604;13.438;2023-07-29T23:06:03;11.03;;;5.27;;
13090;SDS011;6611;52.604;13.438;2023-07-29T23:11:05;7.10;;;5.43;;
13090;SDS011;6611;52.604;13.438;2023-07-29T23:16:06;5.97;;;5.20;;
13090;SDS011;6611;52.604;13.438;2023-07-29T23:21:09;5.70;;;5.10;;
13090;SDS011;6611;52.604;13.438;2023-07-29T23:26:11;8.37;;;5.17;;
13090;SDS011;6611;52.604;13.438;2023-07-29T23:31:12;10.20;;;5.40;;
13090;SDS011;6611;52.604;13.438;2023-07-29T23:36:15;5.13;;;4.50;;
13090;SDS011;6611;52.604;13.438;2023-07-29T23:41:17;5.03;;;4.50;;
13090;SDS011;6611;52.604;13.438;2023-07-29T23:46:19;4.40;;;4.00;;
13090;SDS011;6611;52.604;13.438;2023-07-29T23:51:22;4.63;;;4.13;;
13090;SDS011;6611;52.604;13.438;2023-07-29T23:56:23;5.10;;;4.10;;
